Helotes, Texas
Current Conditions -  °F | °C
As of 12:15 PM on Thursday 23 Oct 2014 (Local Time) from K5C1 Reporting Station
Broken Clouds Broken Clouds  
Wind Chill: 77°   Ceiling: 8500
Heat Index: 79°   Visibility: 10mi
Dew Point: 63°   Wind: 3mph
Humidity: 61%   Direction: 160°SSE
Pressure: 30.18"   Gusts: NA
Location:  29.58°N, 98.69°W
Report Text: K5C1 231715Z AUTO 16003KT 10SM BKN085 25/17 A3018 RMK AO1
Loading
Personal Weather Stations






























Interactive Weather Map
Tropical Storm Tracking
New forecast layout! Learn more

10-Day Weather Forecast

Advertisements
Track Severe Weather on mobile